Eighty Four, PA (15330)

1:49 AM EST on February 10, 2016 (GMT -0500)
Nottingham Twp. | | Change Station
CLOSE
Current Station
Personal Weather Station
Location: Eighty Four, PA
Elevation: 1306 ft
Nearby Weather Stations

Elev 1306 ft 40.23 °N, 80.10 °W | Updated 1 hour ago

Overcast
Overcast
23.6 °F
Feels Like 10 °F
N
17.3
Wind Variable Wind from WSW
Gusts 17.3 mph

Today
High -- | Low -- °F
--% Chance of Precip.
Yesterday
High -- | Low -- °F
Precip. -- in
Pressure 29.71 in
Visibility 8.0 miles
Clouds Scattered Clouds 1900 ft
Mostly Cloudy 2300 ft
Overcast 3300 ft
Windchill 10 °F
Dew Point 18 °F
Humidity 78%
Rainfall 0.00 in
Snow Depth Not available.
7:20 AM 5:49 PM
Waxing Crescent, 4% visible
METAR KAFJ 100635Z AUTO 23011G16KT 8SM SCT019 BKN023 OVC033 M05/M08 A2971 RMK AO1
Pressure 29.71 in
Visibility 8.0 miles
Clouds Scattered Clouds 1900 ft
Mostly Cloudy 2300 ft
Overcast 3300 ft
Windchill 10 °F
Dew Point 18 °F
Humidity 78%
Rainfall 0.00 in
Snow Depth Not available.
7:20 AM 5:49 PM
Waxing Crescent, 4% visible
METAR KAFJ 100635Z AUTO 23011G16KT 8SM SCT019 BKN023 OVC033 M05/M08 A2971 RMK AO1

10-Day Weather Forecast

Almanac

Astronomy

Feb. 10, 2016 Rise Set
Actual Time
Civil Twilight
Nautical Twilight
Astronomical Twilight
Moon
Length of Visible Light
Length of Day
Tomorrow will be .
, % of the Moon is Illuminated

Today's Extremes

State Highs State Lows

Community

WunderPhotos

Upload Photos

1,891,826 photos uploaded!

WunderBlog® & News

Nearby

Air Quality

  Air Quality AQ Index Pollutant
Not available.

Snow Depth

Station Depth Elevation

Earthquake Activity

City Distance Mag. Time & Date
Minimum magnitude displayed is 2.5.

Coastal Water Temperatures

Place Temperature

Stations

Nearby Weather Stations

Station Location Temp. Windchill Dew Point Humidity Wind Precip. Elev Updated Type
                   

Watches & Warnings

Winter Weather Advisory
Issued: 6:22 PM EST Feb. 9, 2016 – National Weather Service

... Winter Weather Advisory remains in effect until 7 am EST
Wednesday...

* additional snow accumulation... 1 to 2 inches.

* Snow ending... snow showers will diminish late tonight.

* Impacts... hazardous travel conditions are expected due to snow.

Precautionary/preparedness actions...

A Winter Weather Advisory for snow means that periods of snow
will cause primarily travel difficulties. Be prepared for snow
covered roads and limited visibilities... and use caution while
driving.